Pagina principale
METAR-TAF:

METAR-TAF

Aeroporti :

Aeroporto di Ponta Delgada

Ponta Delgada, Azzorre, Portogallo

latitudine: 37-44N, longitudine: 025-42W, altezza: 71 m

Osservazione

Il bollettino è stato emesso 10 minuti fa, alle 21:00 UTC
Vento 3 kt da nord/nord-est
Temperature 13°C
Umidità 62%
Pressione 1040 hPa
Visibilità 10 km o più
Poco nuvoloso ad un'altezza di 2500 ft
Nuvoloso ad un'altezza di 4000 ft

METAR: LPPD 112100Z 02003KT 9999 FEW025 BKN040 13/06 Q1040

Ora: 20:10 (21:10 UTC)

Previsione

Il bollettino è stato emesso 4 ore e 10 minuti fa, alle 17:00 UTC
Previsione valida dal 11 alle 18 UTC al 12 alle 18 UTC
Vento 7 kt da nord/nord-est
Visibilità 10 km o più
Poco nuvoloso ad un'altezza di 2000 ft
Nubi sparse ad un'altezza di 4500 ft
Evoluzione graduale
dal 11 alle 20 UTC al 11 alle 23 UTC
Vento 5 kt da direzioni variabili
Nubi sparse ad un'altezza di 2000 ft

TAF: LPPD 111700Z 1118/1218 03007KT 9999 FEW020 SCT045 BECMG 1120/1123 VRB05KT SCT020

Osservazioni e previsioni meteorologiche di più di 4000 aeroporti (messaggi METAR e TAF).

Le stazioni disponibili sono rappresentate dai dischi gialli e rossi sulla carta.

Puntare il mouse per vedere il nome della stazione.

Clicca sopra per visualizzare le osservazioni e previsioni meteorologiche.

Per cambiare la mappa : fare clic sui pulsanti verdi con una croce nera per ingrandire, il pulsante verde con un trattino per diminuire, o sulla freccia verde per le mappe adiacenti.


METAR-TAF: